sensor_id;sensor_type;location;lat;lon;timestamp;temperature;humidity
6810;DHT22;3443;48.812;9.112;2023-05-10T00:01:34;15.00;99.90
6810;DHT22;3443;48.812;9.112;2023-05-10T00:03:59;14.90;99.90
6810;DHT22;3443;48.812;9.112;2023-05-10T00:06:25;14.90;99.90
6810;DHT22;3443;48.812;9.112;2023-05-10T00:08:51;14.80;99.90
6810;DHT22;3443;48.812;9.112;2023-05-10T00:11:16;14.60;99.90
6810;DHT22;3443;48.812;9.112;2023-05-10T00:13:42;14.50;99.90
6810;DHT22;3443;48.812;9.112;2023-05-10T00:16:07;14.30;99.90
6810;DHT22;3443;48.812;9.112;2023-05-10T00:18:33;14.20;99.90
6810;DHT22;3443;48.812;9.112;2023-05-10T00:20:58;14.10;99.90
6810;DHT22;3443;48.812;9.112;2023-05-10T00:23:24;14.00;99.90
6810;DHT22;3443;48.812;9.112;2023-05-10T00:25:50;14.00;99.90
6810;DHT22;3443;48.812;9.112;2023-05-10T00:28:15;13.90;99.90
6810;DHT22;3443;48.812;9.112;2023-05-10T00:30:41;13.90;99.90
6810;DHT22;3443;48.812;9.112;2023-05-10T00:33:06;13.80;99.90
6810;DHT22;3443;48.812;9.112;2023-05-10T00:35:32;13.70;99.90
6810;DHT22;3443;48.812;9.112;2023-05-10T00:37:57;13.70;99.90
6810;DHT22;3443;48.812;9.112;2023-05-10T00:40:23;13.60;99.90
6810;DHT22;3443;48.812;9.112;2023-05-10T00:42:49;13.60;99.90
6810;DHT22;3443;48.812;9.112;2023-05-10T00:45:14;13.60;99.90
6810;DHT22;3443;48.812;9.112;2023-05-10T00:47:40;13.60;99.90
6810;DHT22;3443;48.812;9.112;2023-05-10T00:50:06;13.60;99.90
6810;DHT22;3443;48.812;9.112;2023-05-10T00:52:32;13.60;99.90
6810;DHT22;3443;48.812;9.112;2023-05-10T00:54:58;13.50;99.90
6810;DHT22;3443;48.812;9.112;2023-05-10T00:57:24;13.50;99.90
6810;DHT22;3443;48.812;9.112;2023-05-10T00:59:50;13.40;99.90
6810;DHT22;3443;48.812;9.112;2023-05-10T01:02:16;13.50;99.90
6810;DHT22;3443;48.812;9.112;2023-05-10T01:04:43;13.50;99.90
6810;DHT22;3443;48.812;9.112;2023-05-10T01:07:08;13.50;99.90
6810;DHT22;3443;48.812;9.112;2023-05-10T01:09:34;13.60;99.90
6810;DHT22;3443;48.812;9.112;2023-05-10T01:12:00;13.60;99.90
6810;DHT22;3443;48.812;9.112;2023-05-10T01:14:27;13.60;99.90
6810;DHT22;3443;48.812;9.112;2023-05-10T01:16:53;13.60;99.90
6810;DHT22;3443;48.812;9.112;2023-05-10T01:19:26;13.60;99.90
6810;DHT22;3443;48.812;9.112;2023-05-10T01:22:02;13.60;99.90
6810;DHT22;3443;48.812;9.112;2023-05-10T01:25:05;13.50;99.90
6810;DHT22;3443;48.812;9.112;2023-05-10T01:38:42;13.60;99.90
6810;DHT22;3443;48.812;9.112;2023-05-10T01:41:20;13.60;99.90
6810;DHT22;3443;48.812;9.112;2023-05-10T01:43:57;13.50;99.90
6810;DHT22;3443;48.812;9.112;2023-05-10T01:46:35;13.50;99.90
6810;DHT22;3443;48.812;9.112;2023-05-10T01:49:06;13.50;99.90
6810;DHT22;3443;48.812;9.112;2023-05-10T01:51:39;13.50;99.90
6810;DHT22;3443;48.812;9.112;2023-05-10T01:54:07;13.40;99.90
6810;DHT22;3443;48.812;9.112;2023-05-10T01:56:35;13.40;99.90
6810;DHT22;3443;48.812;9.112;2023-05-10T01:59:05;13.40;99.90
6810;DHT22;3443;48.812;9.112;2023-05-10T02:01:31;13.40;99.90
6810;DHT22;3443;48.812;9.112;2023-05-10T02:03:59;13.40;99.90
6810;DHT22;3443;48.812;9.112;2023-05-10T02:06:26;13.30;99.90
6810;DHT22;3443;48.812;9.112;2023-05-10T02:08:53;13.30;99.90
6810;DHT22;3443;48.812;9.112;2023-05-10T02:11:20;13.20;99.90
6810;DHT22;3443;48.812;9.112;2023-05-10T02:13:48;13.20;99.90
6810;DHT22;3443;48.812;9.112;2023-05-10T02:16:14;13.30;99.90
6810;DHT22;3443;48.812;9.112;2023-05-10T02:18:41;13.30;99.90
6810;DHT22;3443;48.812;9.112;2023-05-10T02:21:08;13.30;99.90
6810;DHT22;3443;48.812;9.112;2023-05-10T02:23:35;13.30;99.90
6810;DHT22;3443;48.812;9.112;2023-05-10T02:26:02;13.30;99.90
6810;DHT22;3443;48.812;9.112;2023-05-10T02:28:29;13.30;99.90
6810;DHT22;3443;48.812;9.112;2023-05-10T02:30:55;13.30;99.90
6810;DHT22;3443;48.812;9.112;2023-05-10T02:33:22;13.20;99.90
6810;DHT22;3443;48.812;9.112;2023-05-10T02:35:48;13.30;99.90
6810;DHT22;3443;48.812;9.112;2023-05-10T02:38:15;13.30;99.90
6810;DHT22;3443;48.812;9.112;2023-05-10T02:40:43;13.40;99.90
6810;DHT22;3443;48.812;9.112;2023-05-10T02:43:12;13.40;99.90
6810;DHT22;3443;48.812;9.112;2023-05-10T02:45:40;13.40;99.90
6810;DHT22;3443;48.812;9.112;2023-05-10T02:48:07;13.40;99.90
6810;DHT22;3443;48.812;9.112;2023-05-10T02:50:33;13.50;99.90
6810;DHT22;3443;48.812;9.112;2023-05-10T02:53:01;13.50;99.90
6810;DHT22;3443;48.812;9.112;2023-05-10T02:55:35;13.50;99.90
6810;DHT22;3443;48.812;9.112;2023-05-10T02:58:02;13.50;99.90
6810;DHT22;3443;48.812;9.112;2023-05-10T03:00:28;13.50;99.90
6810;DHT22;3443;48.812;9.112;2023-05-10T03:02:54;13.50;99.90
6810;DHT22;3443;48.812;9.112;2023-05-10T03:05:20;13.50;99.90
6810;DHT22;3443;48.812;9.112;2023-05-10T03:07:46;13.50;99.90
6810;DHT22;3443;48.812;9.112;2023-05-10T03:10:12;13.50;99.90
6810;DHT22;3443;48.812;9.112;2023-05-10T03:12:47;13.50;99.90
6810;DHT22;3443;48.812;9.112;2023-05-10T03:15:24;13.50;99.90
6810;DHT22;3443;48.812;9.112;2023-05-10T03:17:57;13.40;99.90
6810;DHT22;3443;48.812;9.112;2023-05-10T03:20:47;13.50;99.90
6810;DHT22;3443;48.812;9.112;2023-05-10T03:23:20;13.50;99.90
6810;DHT22;3443;48.812;9.112;2023-05-10T03:25:48;13.50;99.90
6810;DHT22;3443;48.812;9.112;2023-05-10T03:28:16;13.50;99.90
6810;DHT22;3443;48.812;9.112;2023-05-10T03:30:43;13.50;99.90
6810;DHT22;3443;48.812;9.112;2023-05-10T03:33:10;13.50;99.90
6810;DHT22;3443;48.812;9.112;2023-05-10T03:35:36;13.50;99.90
6810;DHT22;3443;48.812;9.112;2023-05-10T03:38:02;13.60;99.90
6810;DHT22;3443;48.812;9.112;2023-05-10T03:40:28;13.60;99.90
6810;DHT22;3443;48.812;9.112;2023-05-10T03:42:56;13.60;99.90
6810;DHT22;3443;48.812;9.112;2023-05-10T03:45:22;13.60;99.90
6810;DHT22;3443;48.812;9.112;2023-05-10T03:47:48;13.60;99.90
6810;DHT22;3443;48.812;9.112;2023-05-10T03:50:13;13.50;99.90
6810;DHT22;3443;48.812;9.112;2023-05-10T03:52:39;13.60;99.90
6810;DHT22;3443;48.812;9.112;2023-05-10T03:55:05;13.50;99.90
6810;DHT22;3443;48.812;9.112;2023-05-10T03:57:31;13.50;99.90
6810;DHT22;3443;48.812;9.112;2023-05-10T03:59:57;13.40;99.90
6810;DHT22;3443;48.812;9.112;2023-05-10T04:02:23;13.50;99.90
6810;DHT22;3443;48.812;9.112;2023-05-10T04:04:48;13.40;99.90
6810;DHT22;3443;48.812;9.112;2023-05-10T04:07:14;13.50;99.90
6810;DHT22;3443;48.812;9.112;2023-05-10T04:09:40;13.50;99.90
6810;DHT22;3443;48.812;9.112;2023-05-10T04:12:05;13.50;99.90
6810;DHT22;3443;48.812;9.112;2023-05-10T04:14:31;13.50;99.90
6810;DHT22;3443;48.812;9.112;2023-05-10T04:16:57;13.50;99.90
6810;DHT22;3443;48.812;9.112;2023-05-10T04:19:23;13.50;99.90
6810;DHT22;3443;48.812;9.112;2023-05-10T04:21:49;13.50;99.90
6810;DHT22;3443;48.812;9.112;2023-05-10T04:24:14;13.50;99.90
6810;DHT22;3443;48.812;9.112;2023-05-10T04:26:40;13.40;99.90
6810;DHT22;3443;48.812;9.112;2023-05-10T04:29:05;13.50;99.90
6810;DHT22;3443;48.812;9.112;2023-05-10T04:31:31;13.50;99.90
6810;DHT22;3443;48.812;9.112;2023-05-10T04:33:56;13.50;99.90
6810;DHT22;3443;48.812;9.112;2023-05-10T04:36:22;13.50;99.90
6810;DHT22;3443;48.812;9.112;2023-05-10T04:38:48;13.40;99.90
6810;DHT22;3443;48.812;9.112;2023-05-10T04:41:13;13.50;99.90
6810;DHT22;3443;48.812;9.112;2023-05-10T04:43:39;13.50;99.90
6810;DHT22;3443;48.812;9.112;2023-05-10T04:46:06;13.50;99.90
6810;DHT22;3443;48.812;9.112;2023-05-10T04:48:32;13.50;99.90
6810;DHT22;3443;48.812;9.112;2023-05-10T04:50:58;13.50;99.90
6810;DHT22;3443;48.812;9.112;2023-05-10T04:53:23;13.50;99.90
6810;DHT22;3443;48.812;9.112;2023-05-10T04:55:49;13.60;99.90
6810;DHT22;3443;48.812;9.112;2023-05-10T04:58:15;13.60;99.90
6810;DHT22;3443;48.812;9.112;2023-05-10T05:00:40;13.70;99.90
6810;DHT22;3443;48.812;9.112;2023-05-10T05:03:06;13.70;99.90
6810;DHT22;3443;48.812;9.112;2023-05-10T05:05:32;13.70;99.90
6810;DHT22;3443;48.812;9.112;2023-05-10T05:07:58;13.70;99.90
6810;DHT22;3443;48.812;9.112;2023-05-10T05:10:23;13.70;99.90
6810;DHT22;3443;48.812;9.112;2023-05-10T05:12:49;13.70;99.90
6810;DHT22;3443;48.812;9.112;2023-05-10T05:15:14;13.80;99.90
6810;DHT22;3443;48.812;9.112;2023-05-10T05:17:42;13.80;99.90
6810;DHT22;3443;48.812;9.112;2023-05-10T05:20:08;13.90;99.90
6810;DHT22;3443;48.812;9.112;2023-05-10T05:22:35;13.90;99.90
6810;DHT22;3443;48.812;9.112;2023-05-10T05:25:01;14.00;99.90
6810;DHT22;3443;48.812;9.112;2023-05-10T05:27:29;14.00;99.90
6810;DHT22;3443;48.812;9.112;2023-05-10T05:29:56;14.00;99.90
6810;DHT22;3443;48.812;9.112;2023-05-10T05:32:22;14.10;99.90
6810;DHT22;3443;48.812;9.112;2023-05-10T05:34:48;14.10;99.90
6810;DHT22;3443;48.812;9.112;2023-05-10T05:37:18;14.20;99.90
6810;DHT22;3443;48.812;9.112;2023-05-10T05:39:44;14.20;99.90
6810;DHT22;3443;48.812;9.112;2023-05-10T05:42:10;14.20;99.90
6810;DHT22;3443;48.812;9.112;2023-05-10T05:44:36;14.20;99.90
6810;DHT22;3443;48.812;9.112;2023-05-10T05:47:03;14.20;99.90
6810;DHT22;3443;48.812;9.112;2023-05-10T05:49:28;14.30;99.90
6810;DHT22;3443;48.812;9.112;2023-05-10T05:51:54;14.30;99.90
6810;DHT22;3443;48.812;9.112;2023-05-10T05:54:20;14.30;99.90
6810;DHT22;3443;48.812;9.112;2023-05-10T05:56:45;14.30;99.90
6810;DHT22;3443;48.812;9.112;2023-05-10T05:59:11;14.30;99.90
6810;DHT22;3443;48.812;9.112;2023-05-10T06:01:37;14.20;99.90
6810;DHT22;3443;48.812;9.112;2023-05-10T06:04:02;14.30;99.90
6810;DHT22;3443;48.812;9.112;2023-05-10T06:06:28;14.30;99.90
6810;DHT22;3443;48.812;9.112;2023-05-10T06:08:54;14.20;99.90
6810;DHT22;3443;48.812;9.112;2023-05-10T06:11:19;14.40;99.90
6810;DHT22;3443;48.812;9.112;2023-05-10T06:13:46;14.40;99.90
6810;DHT22;3443;48.812;9.112;2023-05-10T06:16:12;14.40;99.90
6810;DHT22;3443;48.812;9.112;2023-05-10T06:18:38;14.40;99.90
6810;DHT22;3443;48.812;9.112;2023-05-10T06:21:04;14.40;99.90
6810;DHT22;3443;48.812;9.112;2023-05-10T06:23:29;14.30;99.90
6810;DHT22;3443;48.812;9.112;2023-05-10T06:25:55;14.30;99.90
6810;DHT22;3443;48.812;9.112;2023-05-10T06:28:20;14.30;99.90
6810;DHT22;3443;48.812;9.112;2023-05-10T06:30:46;14.30;99.90
6810;DHT22;3443;48.812;9.112;2023-05-10T06:33:12;14.30;99.90
6810;DHT22;3443;48.812;9.112;2023-05-10T06:35:37;14.30;99.90
6810;DHT22;3443;48.812;9.112;2023-05-10T06:38:04;14.40;99.90
6810;DHT22;3443;48.812;9.112;2023-05-10T06:40:29;14.50;99.90
6810;DHT22;3443;48.812;9.112;2023-05-10T06:42:55;14.50;99.90
6810;DHT22;3443;48.812;9.112;2023-05-10T06:45:20;14.50;99.90
6810;DHT22;3443;48.812;9.112;2023-05-10T06:47:46;14.40;99.90
6810;DHT22;3443;48.812;9.112;2023-05-10T06:50:12;14.40;99.90
6810;DHT22;3443;48.812;9.112;2023-05-10T06:52:37;14.40;99.90
6810;DHT22;3443;48.812;9.112;2023-05-10T06:55:04;14.40;99.90
6810;DHT22;3443;48.812;9.112;2023-05-10T06:57:30;14.50;99.90
6810;DHT22;3443;48.812;9.112;2023-05-10T06:59:56;14.50;99.90
6810;DHT22;3443;48.812;9.112;2023-05-10T07:02:22;14.40;99.90
6810;DHT22;3443;48.812;9.112;2023-05-10T07:04:48;14.40;99.90
6810;DHT22;3443;48.812;9.112;2023-05-10T07:07:14;14.40;99.90
6810;DHT22;3443;48.812;9.112;2023-05-10T07:09:40;14.40;99.90
6810;DHT22;3443;48.812;9.112;2023-05-10T07:12:06;14.60;99.90
6810;DHT22;3443;48.812;9.112;2023-05-10T07:14:31;14.70;99.90
6810;DHT22;3443;48.812;9.112;2023-05-10T07:16:57;14.70;99.90
6810;DHT22;3443;48.812;9.112;2023-05-10T07:19:22;14.80;99.90
6810;DHT22;3443;48.812;9.112;2023-05-10T07:21:48;14.90;99.90
6810;DHT22;3443;48.812;9.112;2023-05-10T07:24:14;15.00;99.90
6810;DHT22;3443;48.812;9.112;2023-05-10T07:26:39;15.10;99.90
6810;DHT22;3443;48.812;9.112;2023-05-10T07:29:05;15.20;99.90
6810;DHT22;3443;48.812;9.112;2023-05-10T07:31:30;15.40;99.90
6810;DHT22;3443;48.812;9.112;2023-05-10T07:33:56;15.40;99.90
6810;DHT22;3443;48.812;9.112;2023-05-10T07:36:22;15.50;99.90
6810;DHT22;3443;48.812;9.112;2023-05-10T07:38:47;15.60;99.90
6810;DHT22;3443;48.812;9.112;2023-05-10T07:41:14;15.80;99.90
6810;DHT22;3443;48.812;9.112;2023-05-10T07:43:40;15.70;99.90
6810;DHT22;3443;48.812;9.112;2023-05-10T07:46:05;15.90;99.90
6810;DHT22;3443;48.812;9.112;2023-05-10T07:48:31;16.00;99.90
6810;DHT22;3443;48.812;9.112;2023-05-10T07:50:57;16.00;99.90
6810;DHT22;3443;48.812;9.112;2023-05-10T07:53:22;16.00;99.90
6810;DHT22;3443;48.812;9.112;2023-05-10T07:55:52;16.10;99.90
6810;DHT22;3443;48.812;9.112;2023-05-10T07:58:19;16.00;99.90
6810;DHT22;3443;48.812;9.112;2023-05-10T08:00:45;15.90;99.90
6810;DHT22;3443;48.812;9.112;2023-05-10T08:03:11;15.80;99.90
6810;DHT22;3443;48.812;9.112;2023-05-10T08:05:36;15.80;99.90
6810;DHT22;3443;48.812;9.112;2023-05-10T08:08:02;15.70;99.90
6810;DHT22;3443;48.812;9.112;2023-05-10T08:10:27;15.70;99.90
6810;DHT22;3443;48.812;9.112;2023-05-10T08:12:53;15.80;99.90
6810;DHT22;3443;48.812;9.112;2023-05-10T08:15:19;15.80;99.90
6810;DHT22;3443;48.812;9.112;2023-05-10T08:17:44;15.80;99.90
6810;DHT22;3443;48.812;9.112;2023-05-10T08:20:10;15.80;99.90
6810;DHT22;3443;48.812;9.112;2023-05-10T08:22:38;15.70;99.90
6810;DHT22;3443;48.812;9.112;2023-05-10T08:25:03;15.70;99.90
6810;DHT22;3443;48.812;9.112;2023-05-10T08:27:29;15.60;99.90
6810;DHT22;3443;48.812;9.112;2023-05-10T08:29:55;15.70;99.90
6810;DHT22;3443;48.812;9.112;2023-05-10T08:32:20;15.80;99.90
6810;DHT22;3443;48.812;9.112;2023-05-10T08:34:46;15.80;99.90
6810;DHT22;3443;48.812;9.112;2023-05-10T08:37:12;15.80;99.90
6810;DHT22;3443;48.812;9.112;2023-05-10T08:39:38;15.70;99.90
6810;DHT22;3443;48.812;9.112;2023-05-10T08:42:04;15.70;99.90
6810;DHT22;3443;48.812;9.112;2023-05-10T08:44:35;15.80;99.90
6810;DHT22;3443;48.812;9.112;2023-05-10T08:47:05;16.00;99.90
6810;DHT22;3443;48.812;9.112;2023-05-10T08:49:34;16.10;99.90
6810;DHT22;3443;48.812;9.112;2023-05-10T08:52:03;16.30;99.90
6810;DHT22;3443;48.812;9.112;2023-05-10T08:54:31;16.40;99.90
6810;DHT22;3443;48.812;9.112;2023-05-10T08:56:56;16.50;99.90
6810;DHT22;3443;48.812;9.112;2023-05-10T08:59:22;16.50;99.90
6810;DHT22;3443;48.812;9.112;2023-05-10T09:01:49;16.50;99.90
6810;DHT22;3443;48.812;9.112;2023-05-10T09:04:15;16.40;99.90
6810;DHT22;3443;48.812;9.112;2023-05-10T09:06:41;16.50;99.90
6810;DHT22;3443;48.812;9.112;2023-05-10T09:09:07;16.60;99.90
6810;DHT22;3443;48.812;9.112;2023-05-10T09:11:32;16.70;99.90
6810;DHT22;3443;48.812;9.112;2023-05-10T09:13:58;16.70;99.90
6810;DHT22;3443;48.812;9.112;2023-05-10T09:16:24;16.70;99.90
6810;DHT22;3443;48.812;9.112;2023-05-10T09:18:49;16.60;99.90
6810;DHT22;3443;48.812;9.112;2023-05-10T09:21:15;16.60;99.90
6810;DHT22;3443;48.812;9.112;2023-05-10T09:23:45;16.70;99.90
6810;DHT22;3443;48.812;9.112;2023-05-10T09:26:12;16.60;99.90
6810;DHT22;3443;48.812;9.112;2023-05-10T09:28:55;16.60;99.90
6810;DHT22;3443;48.812;9.112;2023-05-10T09:31:21;16.80;99.90
6810;DHT22;3443;48.812;9.112;2023-05-10T09:33:48;16.80;99.90
6810;DHT22;3443;48.812;9.112;2023-05-10T09:36:14;16.80;99.90
6810;DHT22;3443;48.812;9.112;2023-05-10T09:38:50;16.90;99.90
6810;DHT22;3443;48.812;9.112;2023-05-10T09:41:21;17.00;99.90
6810;DHT22;3443;48.812;9.112;2023-05-10T09:43:48;16.90;99.90
6810;DHT22;3443;48.812;9.112;2023-05-10T09:46:15;16.80;99.90
6810;DHT22;3443;48.812;9.112;2023-05-10T09:48:46;16.70;99.90
6810;DHT22;3443;48.812;9.112;2023-05-10T09:51:24;16.80;99.90
6810;DHT22;3443;48.812;9.112;2023-05-10T09:54:11;16.80;99.90
6810;DHT22;3443;48.812;9.112;2023-05-10T09:56:37;17.00;99.90
6810;DHT22;3443;48.812;9.112;2023-05-10T09:59:06;17.30;99.90
6810;DHT22;3443;48.812;9.112;2023-05-10T10:01:32;17.20;99.90
6810;DHT22;3443;48.812;9.112;2023-05-10T10:03:58;17.10;99.90
6810;DHT22;3443;48.812;9.112;2023-05-10T10:06:24;17.00;99.90
6810;DHT22;3443;48.812;9.112;2023-05-10T10:08:51;17.00;99.90
6810;DHT22;3443;48.812;9.112;2023-05-10T10:11:17;16.90;99.90
6810;DHT22;3443;48.812;9.112;2023-05-10T10:13:43;16.80;99.90
6810;DHT22;3443;48.812;9.112;2023-05-10T10:16:09;17.00;99.90
6810;DHT22;3443;48.812;9.112;2023-05-10T10:18:36;17.20;99.90
6810;DHT22;3443;48.812;9.112;2023-05-10T10:21:07;17.40;99.90
6810;DHT22;3443;48.812;9.112;2023-05-10T10:23:36;17.60;99.90
6810;DHT22;3443;48.812;9.112;2023-05-10T10:26:03;17.70;99.90
6810;DHT22;3443;48.812;9.112;2023-05-10T10:31:32;18.00;99.90
6810;DHT22;3443;48.812;9.112;2023-05-10T10:34:06;18.10;99.90
6810;DHT22;3443;48.812;9.112;2023-05-10T10:36:39;18.00;99.90
6810;DHT22;3443;48.812;9.112;2023-05-10T10:39:09;17.90;99.90
6810;DHT22;3443;48.812;9.112;2023-05-10T10:41:50;17.80;99.90
6810;DHT22;3443;48.812;9.112;2023-05-10T10:47:06;17.90;99.90
6810;DHT22;3443;48.812;9.112;2023-05-10T10:57:31;17.60;99.90
6810;DHT22;3443;48.812;9.112;2023-05-10T11:02:44;17.60;99.90
6810;DHT22;3443;48.812;9.112;2023-05-10T11:05:34;17.50;99.90
6810;DHT22;3443;48.812;9.112;2023-05-10T11:08:16;17.30;99.90
6810;DHT22;3443;48.812;9.112;2023-05-10T11:11:13;17.00;99.90
6810;DHT22;3443;48.812;9.112;2023-05-10T11:16:24;16.60;99.90
6810;DHT22;3443;48.812;9.112;2023-05-10T11:18:56;16.70;99.90
6810;DHT22;3443;48.812;9.112;2023-05-10T11:21:22;16.70;99.90
6810;DHT22;3443;48.812;9.112;2023-05-10T11:23:51;16.80;99.90
6810;DHT22;3443;48.812;9.112;2023-05-10T11:26:17;17.20;99.90
6810;DHT22;3443;48.812;9.112;2023-05-10T11:28:44;17.40;99.90
6810;DHT22;3443;48.812;9.112;2023-05-10T11:31:11;17.60;99.90
6810;DHT22;3443;48.812;9.112;2023-05-10T11:33:44;17.60;99.90
6810;DHT22;3443;48.812;9.112;2023-05-10T11:36:39;17.70;99.90
6810;DHT22;3443;48.812;9.112;2023-05-10T11:39:05;17.60;99.90
6810;DHT22;3443;48.812;9.112;2023-05-10T11:41:31;17.60;99.90
6810;DHT22;3443;48.812;9.112;2023-05-10T11:43:57;17.70;99.90
6810;DHT22;3443;48.812;9.112;2023-05-10T11:46:25;17.60;99.90
6810;DHT22;3443;48.812;9.112;2023-05-10T11:48:54;17.50;99.90
6810;DHT22;3443;48.812;9.112;2023-05-10T11:51:21;17.40;99.90
6810;DHT22;3443;48.812;9.112;2023-05-10T11:53:48;17.20;99.90
6810;DHT22;3443;48.812;9.112;2023-05-10T11:56:14;16.90;99.90
6810;DHT22;3443;48.812;9.112;2023-05-10T11:58:39;16.90;99.90
6810;DHT22;3443;48.812;9.112;2023-05-10T12:01:07;16.70;99.90
6810;DHT22;3443;48.812;9.112;2023-05-10T12:03:33;16.50;99.90
6810;DHT22;3443;48.812;9.112;2023-05-10T12:06:01;16.40;99.90
6810;DHT22;3443;48.812;9.112;2023-05-10T12:08:29;16.50;99.90
6810;DHT22;3443;48.812;9.112;2023-05-10T12:11:05;16.60;99.90
6810;DHT22;3443;48.812;9.112;2023-05-10T12:13:31;16.70;99.90
6810;DHT22;3443;48.812;9.112;2023-05-10T12:16:15;16.90;99.90
6810;DHT22;3443;48.812;9.112;2023-05-10T12:18:41;16.90;99.90
6810;DHT22;3443;48.812;9.112;2023-05-10T12:21:09;17.10;99.90
6810;DHT22;3443;48.812;9.112;2023-05-10T12:23:35;17.30;99.90
6810;DHT22;3443;48.812;9.112;2023-05-10T12:26:04;17.50;99.90
6810;DHT22;3443;48.812;9.112;2023-05-10T12:28:31;17.40;99.90
6810;DHT22;3443;48.812;9.112;2023-05-10T12:31:00;17.40;99.90
6810;DHT22;3443;48.812;9.112;2023-05-10T12:33:26;17.40;99.90
6810;DHT22;3443;48.812;9.112;2023-05-10T12:35:54;17.40;99.90
6810;DHT22;3443;48.812;9.112;2023-05-10T12:41:00;17.50;99.90
6810;DHT22;3443;48.812;9.112;2023-05-10T12:43:26;17.40;99.90
6810;DHT22;3443;48.812;9.112;2023-05-10T12:45:51;17.40;99.90
6810;DHT22;3443;48.812;9.112;2023-05-10T12:48:17;17.50;99.90
6810;DHT22;3443;48.812;9.112;2023-05-10T12:50:43;17.60;99.90
6810;DHT22;3443;48.812;9.112;2023-05-10T12:53:08;17.50;99.90
6810;DHT22;3443;48.812;9.112;2023-05-10T12:55:34;17.60;99.90
6810;DHT22;3443;48.812;9.112;2023-05-10T12:57:59;17.70;99.90
6810;DHT22;3443;48.812;9.112;2023-05-10T13:00:25;17.90;99.90
6810;DHT22;3443;48.812;9.112;2023-05-10T13:02:51;17.80;99.90
6810;DHT22;3443;48.812;9.112;2023-05-10T13:05:17;17.70;99.90
6810;DHT22;3443;48.812;9.112;2023-05-10T13:07:42;17.70;99.90
6810;DHT22;3443;48.812;9.112;2023-05-10T13:10:09;17.70;99.90
6810;DHT22;3443;48.812;9.112;2023-05-10T13:12:35;17.60;99.90
6810;DHT22;3443;48.812;9.112;2023-05-10T13:15:01;17.50;99.90
6810;DHT22;3443;48.812;9.112;2023-05-10T13:17:27;17.40;99.90
6810;DHT22;3443;48.812;9.112;2023-05-10T13:19:53;17.40;99.90
6810;DHT22;3443;48.812;9.112;2023-05-10T13:22:19;17.50;99.90
6810;DHT22;3443;48.812;9.112;2023-05-10T13:24:44;17.30;99.90
6810;DHT22;3443;48.812;9.112;2023-05-10T13:27:10;17.20;99.90
6810;DHT22;3443;48.812;9.112;2023-05-10T13:29:36;17.20;99.90
6810;DHT22;3443;48.812;9.112;2023-05-10T13:32:01;17.20;99.90
6810;DHT22;3443;48.812;9.112;2023-05-10T13:34:27;17.00;99.90
6810;DHT22;3443;48.812;9.112;2023-05-10T13:36:53;17.10;99.90
6810;DHT22;3443;48.812;9.112;2023-05-10T13:39:20;17.20;99.90
6810;DHT22;3443;48.812;9.112;2023-05-10T13:41:45;17.30;99.90
6810;DHT22;3443;48.812;9.112;2023-05-10T13:44:13;17.30;99.90
6810;DHT22;3443;48.812;9.112;2023-05-10T13:46:39;17.40;99.90
6810;DHT22;3443;48.812;9.112;2023-05-10T13:49:05;17.40;99.90
6810;DHT22;3443;48.812;9.112;2023-05-10T13:51:31;17.50;99.90
6810;DHT22;3443;48.812;9.112;2023-05-10T13:53:57;17.50;99.90
6810;DHT22;3443;48.812;9.112;2023-05-10T13:56:23;17.60;99.90
6810;DHT22;3443;48.812;9.112;2023-05-10T13:58:48;17.50;99.90
6810;DHT22;3443;48.812;9.112;2023-05-10T14:01:14;17.50;99.90
6810;DHT22;3443;48.812;9.112;2023-05-10T14:03:40;17.50;99.90
6810;DHT22;3443;48.812;9.112;2023-05-10T14:06:05;17.40;99.90
6810;DHT22;3443;48.812;9.112;2023-05-10T14:08:32;17.40;99.90
6810;DHT22;3443;48.812;9.112;2023-05-10T14:10:58;17.50;99.90
6810;DHT22;3443;48.812;9.112;2023-05-10T14:13:24;17.70;99.90
6810;DHT22;3443;48.812;9.112;2023-05-10T14:15:50;17.70;99.90
6810;DHT22;3443;48.812;9.112;2023-05-10T14:18:16;17.70;99.90
6810;DHT22;3443;48.812;9.112;2023-05-10T14:20:41;17.60;99.90
6810;DHT22;3443;48.812;9.112;2023-05-10T14:23:07;17.60;99.90
6810;DHT22;3443;48.812;9.112;2023-05-10T14:25:33;17.80;99.90
6810;DHT22;3443;48.812;9.112;2023-05-10T14:27:59;17.90;99.90
6810;DHT22;3443;48.812;9.112;2023-05-10T14:30:25;17.90;99.90
6810;DHT22;3443;48.812;9.112;2023-05-10T14:32:51;17.90;99.90
6810;DHT22;3443;48.812;9.112;2023-05-10T14:35:18;17.90;99.90
6810;DHT22;3443;48.812;9.112;2023-05-10T14:37:43;17.90;99.90
6810;DHT22;3443;48.812;9.112;2023-05-10T14:40:09;18.00;99.90
6810;DHT22;3443;48.812;9.112;2023-05-10T14:42:35;17.90;99.90
6810;DHT22;3443;48.812;9.112;2023-05-10T14:45:00;18.00;99.90
6810;DHT22;3443;48.812;9.112;2023-05-10T14:47:26;17.90;99.90
6810;DHT22;3443;48.812;9.112;2023-05-10T14:49:51;17.90;99.90
6810;DHT22;3443;48.812;9.112;2023-05-10T14:52:17;18.10;99.90
6810;DHT22;3443;48.812;9.112;2023-05-10T14:54:42;18.00;99.90
6810;DHT22;3443;48.812;9.112;2023-05-10T14:57:08;18.00;99.90
6810;DHT22;3443;48.812;9.112;2023-05-10T14:59:34;18.00;99.90
6810;DHT22;3443;48.812;9.112;2023-05-10T15:01:59;18.10;99.90
6810;DHT22;3443;48.812;9.112;2023-05-10T15:04:25;18.10;99.90
6810;DHT22;3443;48.812;9.112;2023-05-10T15:06:50;18.10;99.90
6810;DHT22;3443;48.812;9.112;2023-05-10T15:09:16;18.10;99.90
6810;DHT22;3443;48.812;9.112;2023-05-10T15:11:42;18.10;99.90
6810;DHT22;3443;48.812;9.112;2023-05-10T15:14:08;18.10;99.90
6810;DHT22;3443;48.812;9.112;2023-05-10T15:16:34;18.20;99.90
6810;DHT22;3443;48.812;9.112;2023-05-10T15:18:59;18.20;99.90
6810;DHT22;3443;48.812;9.112;2023-05-10T15:21:25;18.10;99.90
6810;DHT22;3443;48.812;9.112;2023-05-10T15:23:50;18.10;99.90
6810;DHT22;3443;48.812;9.112;2023-05-10T15:26:16;17.90;99.90
6810;DHT22;3443;48.812;9.112;2023-05-10T15:28:41;17.80;99.90
6810;DHT22;3443;48.812;9.112;2023-05-10T15:31:07;17.70;99.90
6810;DHT22;3443;48.812;9.112;2023-05-10T15:33:33;17.60;99.90
6810;DHT22;3443;48.812;9.112;2023-05-10T15:35:58;17.70;99.90
6810;DHT22;3443;48.812;9.112;2023-05-10T15:38:24;17.70;99.90
6810;DHT22;3443;48.812;9.112;2023-05-10T15:40:49;17.80;99.90
6810;DHT22;3443;48.812;9.112;2023-05-10T15:43:15;17.80;99.90
6810;DHT22;3443;48.812;9.112;2023-05-10T15:45:41;17.80;99.90
6810;DHT22;3443;48.812;9.112;2023-05-10T15:48:07;17.90;99.90
6810;DHT22;3443;48.812;9.112;2023-05-10T15:50:32;18.00;99.90
6810;DHT22;3443;48.812;9.112;2023-05-10T15:52:58;18.00;99.90
6810;DHT22;3443;48.812;9.112;2023-05-10T15:55:23;17.90;99.90
6810;DHT22;3443;48.812;9.112;2023-05-10T15:57:49;17.80;99.90
6810;DHT22;3443;48.812;9.112;2023-05-10T16:00:16;17.70;99.90
6810;DHT22;3443;48.812;9.112;2023-05-10T16:02:42;17.70;99.90
6810;DHT22;3443;48.812;9.112;2023-05-10T16:05:08;17.50;99.90
6810;DHT22;3443;48.812;9.112;2023-05-10T16:07:34;17.50;99.90
6810;DHT22;3443;48.812;9.112;2023-05-10T16:10:00;17.60;99.90
6810;DHT22;3443;48.812;9.112;2023-05-10T16:12:29;17.40;99.90
6810;DHT22;3443;48.812;9.112;2023-05-10T16:14:55;17.30;99.90
6810;DHT22;3443;48.812;9.112;2023-05-10T16:17:21;17.30;99.90
6810;DHT22;3443;48.812;9.112;2023-05-10T16:19:47;17.30;99.90
6810;DHT22;3443;48.812;9.112;2023-05-10T16:22:13;17.40;99.90
6810;DHT22;3443;48.812;9.112;2023-05-10T16:24:38;17.40;99.90
6810;DHT22;3443;48.812;9.112;2023-05-10T16:27:04;17.30;99.90
6810;DHT22;3443;48.812;9.112;2023-05-10T16:29:29;17.20;99.90
6810;DHT22;3443;48.812;9.112;2023-05-10T16:31:56;17.20;99.90
6810;DHT22;3443;48.812;9.112;2023-05-10T16:34:21;17.20;99.90